Terminal Aerodrome Forecast
Issued by NWS

Current Version | Previous Version | Text Only | Print | Product List | Glossary Off
Versions: 1 2 3 4 5 6 7 8 9 10 11 12 13 14 15 16 17 18

000
FTUS41 KPBZ 110500
TAFMGW
TAF
KMGW 110539Z 1106/1206 00000KT P6SM SKC
     FM110800 00000KT 1 1/2SM BR SCT250
     FM111100 00000KT 1/2SM FG VV002
     FM111400 06005KT P6SM SCT050=

USA.gov is the U.S. government's official web portal to all federal, state and local government web resources and services.